Terminal Aerodrome Forecast
Issued by NWS Sioux Falls, SD

Home | Current Version | Previous Version | Graphics & Text | Print | Product List | Glossary On
Versions: 1 2 3 4 5 6 7 8 9 10 11 12 13 14
271
FTUS43 KFSD 191140
TAFHON
TAF
KHON 191140Z 1912/2012 17005KT P6SM SKC
     FM191500 16009KT P6SM SKC
     FM192000 17013G18KT P6SM SKC
     FM200100 16009KT P6SM FEW250
     FM200900 18005KT P6SM SCT200
     FM201100 07004KT P6SM SCT200=

USA.gov is the U.S. government's official web portal to all federal, state and local government web resources and services.